Time;durP1;ratioP1;P1;durP2;ratioP2;P2;SDS_P1;SDS_P2;PMS_P1;PMS_P2;Temp;Humidity;BMP_temperature;BMP_pressure;BME280_temperature;BME280_humidity;BME280_pressure;Samples;Min_cycle;Max_cycle;Signal;HPM_P1;HPM_P2
2022/01/08 00:00:29;;;;;;;21.80;12.65;;;;;;;6.32;80.20;100035.19;3130027;28;20201;-72
2022/01/08 00:02:03;;;;;;;22.33;13.25;;;;;;;6.25;80.22;100020.72;3133351;28;20094;-72
2022/01/08 00:03:34;;;;;;;23.80;14.02;;;;;;;6.34;80.25;100033.41;3133385;28;20045;-72
2022/01/08 00:05:09;;;;;;;25.13;14.02;;;;;;;6.33;80.12;100032.56;3130715;28;20052;-72
2022/01/08 00:06:41;;;;;;;25.30;14.93;;;;;;;6.09;80.06;99999.53;3132710;28;20057;-72
2022/01/08 00:08:12;;;;;;;24.65;14.35;;;;;;;6.29;80.33;100032.66;3130472;28;20053;-73
2022/01/08 00:09:44;;;;;;;26.88;14.98;;;;;;;6.18;80.33;100022.56;3131986;28;20045;-72
2022/01/08 00:11:19;;;;;;;24.85;14.43;;;;;;;6.25;80.61;100031.06;3132389;28;20056;-73
2022/01/08 00:12:52;;;;;;;25.98;15.52;;;;;;;6.22;80.68;100024.22;3132360;28;20088;-72
2022/01/08 00:14:25;;;;;;;26.73;14.80;;;;;;;6.20;80.71;100025.97;3126588;28;20037;-73
2022/01/08 00:15:56;;;;;;;25.75;14.82;;;;;;;6.25;80.79;100038.81;3131134;28;20044;-72
2022/01/08 00:17:28;;;;;;;25.60;15.40;;;;;;;6.21;80.88;100030.28;3132245;28;20103;-72
2022/01/08 00:19:00;;;;;;;28.05;15.75;;;;;;;5.95;80.75;99981.78;3132342;28;20053;-73
2022/01/08 00:20:35;;;;;;;26.13;14.27;;;;;;;6.31;80.75;100036.09;3131098;28;20049;-73
2022/01/08 00:22:08;;;;;;;26.55;16.13;;;;;;;6.30;80.85;100034.34;3131536;28;20073;-72
2022/01/08 00:23:40;;;;;;;27.15;15.63;;;;;;;6.30;80.84;100031.78;3131547;28;20045;-72
2022/01/08 00:25:12;;;;;;;28.90;15.77;;;;;;;6.27;81.01;100018.91;3132775;28;20055;-73
2022/01/08 00:26:44;;;;;;;27.70;15.48;;;;;;;6.33;80.76;100031.69;3132587;28;20052;-73
2022/01/08 00:28:16;;;;;;;26.98;15.48;;;;;;;6.34;80.87;100031.69;3129993;28;20061;-73
2022/01/08 00:29:48;;;;;;;28.95;15.65;;;;;;;6.35;80.83;100027.34;3132010;28;20067;-73
2022/01/08 00:31:20;;;;;;;25.63;14.02;;;;;;;6.35;80.88;100023.03;3131896;28;20579;-73
2022/01/08 00:32:52;;;;;;;29.40;16.75;;;;;;;6.37;80.78;100017.81;3128380;28;20526;-71
2022/01/08 00:34:23;;;;;;;26.30;14.93;;;;;;;6.33;80.90;100011.00;3120804;28;20083;-71
2022/01/08 00:35:57;;;;;;;25.38;15.65;;;;;;;6.36;80.91;100013.56;3126231;28;20049;-71
2022/01/08 00:37:29;;;;;;;26.77;15.60;;;;;;;6.34;81.17;100012.72;3131662;28;20107;-71
2022/01/08 00:39:00;;;;;;;27.85;15.35;;;;;;;6.33;81.04;100017.06;3132197;28;20056;-71
2022/01/08 00:40:32;;;;;;;26.70;15.27;;;;;;;6.36;80.89;100008.38;3129508;28;20044;-70
2022/01/08 00:42:04;;;;;;;24.85;14.90;;;;;;;6.35;80.84;100012.69;3132096;28;20052;-71
2022/01/08 00:43:37;;;;;;;27.15;13.75;;;;;;;6.25;81.01;99987.94;3131488;28;20045;-71
2022/01/08 00:45:10;;;;;;;25.15;13.63;;;;;;;6.35;80.84;100011.81;3129924;28;20056;-71
2022/01/08 00:46:41;;;;;;;18.45;11.32;;;;;;;6.34;80.75;100005.81;3132391;28;20106;-70
2022/01/08 00:48:13;;;;;;;23.65;12.85;;;;;;;6.35;80.81;100004.06;3130341;28;20413;-69
2022/01/08 00:49:45;;;;;;;21.08;12.98;;;;;;;6.35;80.61;100002.31;3131771;28;20126;-69
2022/01/08 00:51:18;;;;;;;26.33;14.23;;;;;;;6.39;80.73;100003.13;3131762;28;20049;-71
2022/01/08 00:52:50;;;;;;;23.42;14.38;;;;;;;6.38;80.75;99993.66;3128870;28;20753;-71
2022/01/08 00:54:22;;;;;;;24.45;13.32;;;;;;;6.41;80.71;100001.31;3129881;28;20049;-71
2022/01/08 00:55:54;;;;;;;23.98;13.98;;;;;;;6.38;80.91;99991.06;3128826;28;20060;-71
2022/01/08 00:57:26;;;;;;;26.13;14.02;;;;;;;6.44;80.88;100000.41;3130210;28;20052;-69
2022/01/08 00:58:58;;;;;;;22.08;13.55;;;;;;;6.45;80.68;100002.97;3131918;28;20077;-70
2022/01/08 01:00:30;;;;;;;24.75;13.45;;;;;;;6.46;80.66;99996.06;3128830;28;20049;-70
2022/01/08 01:02:03;;;;;;;24.58;14.30;;;;;;;6.45;80.83;99995.22;3131539;28;20048;-70
2022/01/08 01:03:35;;;;;;;24.47;13.93;;;;;;;6.48;80.82;99997.72;3131514;28;20099;-70
2022/01/08 01:05:08;;;;;;;25.60;14.25;;;;;;;6.50;80.76;100003.69;3129956;28;21054;-72
2022/01/08 01:06:41;;;;;;;23.23;13.48;;;;;;;6.49;80.71;99993.38;3132149;28;20052;-71
2022/01/08 01:08:13;;;;;;;25.17;14.30;;;;;;;6.50;80.74;99995.91;3129784;28;20102;-71
2022/01/08 01:09:45;;;;;;;24.92;14.10;;;;;;;6.43;80.67;99976.28;3131449;28;20118;-72
2022/01/08 01:11:16;;;;;;;29.02;14.57;;;;;;;6.50;80.66;99982.13;3131347;28;20045;-71
2022/01/08 01:12:48;;;;;;;25.55;14.50;;;;;;;6.52;80.67;99988.97;3131228;28;20060;-72
2022/01/08 01:14:20;;;;;;;21.38;12.60;;;;;;;6.56;80.44;99992.34;3131631;28;20059;-72
2022/01/08 01:15:52;;;;;;;25.83;13.73;;;;;;;6.55;80.43;99985.47;3131662;28;20048;-72
2022/01/08 01:17:24;;;;;;;28.52;14.32;;;;;;;6.55;80.53;99985.47;3129462;28;20045;-72
2022/01/08 01:18:58;;;;;;;30.23;15.07;;;;;;;6.54;80.38;99983.78;3132020;28;20106;-71
2022/01/08 01:20:30;;;;;;;29.67;15.88;;;;;;;6.54;80.48;99978.59;3129446;28;20084;-71
2022/01/08 01:22:04;;;;;;;31.30;16.10;;;;;;;6.58;80.57;99977.63;3131724;28;20098;-72
2022/01/08 01:23:40;;;;;;;28.95;14.88;;;;;;;6.57;80.42;99981.13;3131646;28;20103;-70
2022/01/08 01:25:16;;;;;;;24.42;14.30;;;;;;;6.56;80.47;99981.97;3131247;28;20437;-70
2022/01/08 01:27:09;;;;;;;26.70;13.95;;;;;;;6.25;80.24;99922.44;3128646;28;20052;-70
2022/01/08 01:28:47;;;;;;;29.70;14.90;;;;;;;6.53;80.53;99976.88;3129694;28;20049;-73
2022/01/08 01:30:28;;;;;;;26.60;14.23;;;;;;;6.50;80.62;99964.88;3131641;28;20057;-72
2022/01/08 01:41:21;;;;;;;27.05;14.95;;;;;;;6.51;80.89;99940.72;3129079;28;20077;-71
2022/01/08 01:43:19;;;;;;;30.15;15.93;;;;;;;6.47;80.65;99923.56;3131986;28;20049;-71
2022/01/08 01:47:03;;;;;;;23.48;13.90;;;;;;;6.56;80.78;99933.66;3133093;28;20053;-71
2022/01/08 01:48:35;;;;;;;28.95;15.40;;;;;;;6.52;80.85;99929.47;3132057;28;20194;-71
2022/01/08 01:50:09;;;;;;;25.40;14.18;;;;;;;6.53;80.62;99927.72;3134790;28;20152;-71
2022/01/08 01:51:41;;;;;;;23.58;14.02;;;;;;;6.56;80.56;99928.50;3133308;28;20067;-73
2022/01/08 01:53:15;;;;;;;26.05;14.80;;;;;;;6.59;80.61;99936.16;3132031;28;20139;-73
2022/01/08 01:54:46;;;;;;;24.02;14.32;;;;;;;6.58;80.69;99931.06;3131967;28;20048;-73
2022/01/08 01:56:19;;;;;;;21.42;12.98;;;;;;;6.59;80.44;99936.16;3131124;28;20480;-73
2022/01/08 01:57:51;;;;;;;26.50;14.98;;;;;;;6.57;80.71;99932.78;3132988;28;20110;-73
2022/01/08 01:59:23;;;;;;;25.30;14.13;;;;;;;6.60;80.42;99937.88;3133927;28;20057;-73
2022/01/08 02:00:55;;;;;;;24.88;13.85;;;;;;;6.60;80.60;99945.66;3129914;28;20551;-71
2022/01/08 02:02:27;;;;;;;24.13;14.02;;;;;;;6.61;80.46;99946.50;3138830;28;20067;-72
2022/01/08 02:03:59;;;;;;;22.73;14.02;;;;;;;6.61;80.30;99942.16;3132025;28;20063;-72
2022/01/08 02:05:31;;;;;;;25.85;13.07;;;;;;;6.61;80.45;99936.16;3133152;28;20134;-71
2022/01/08 02:07:03;;;;;;;24.05;14.27;;;;;;;6.23;80.43;99868.16;3134019;28;20049;-71
2022/01/08 02:08:38;;;;;;;26.92;14.10;;;;;;;6.39;80.27;99894.47;3130856;28;20044;-71
2022/01/08 02:10:10;;;;;;;24.52;13.82;;;;;;;6.63;80.20;99931.78;3132649;28;20522;-71
2022/01/08 02:11:59;;;;;;;29.33;14.98;;;;;;;6.64;79.96;99924.88;3132291;28;20588;-71
2022/01/08 02:13:32;;;;;;;23.90;13.95;;;;;;;6.60;80.27;99917.19;3133990;28;20099;-71
2022/01/08 02:15:04;;;;;;;24.90;14.30;;;;;;;6.28;80.00;99862.88;3133582;28;20070;-72
2022/01/08 02:16:36;;;;;;;23.88;14.15;;;;;;;6.59;80.00;99907.72;3131679;28;20044;-72
2022/01/08 02:18:08;;;;;;;27.15;14.35;;;;;;;6.59;79.83;99907.72;3132801;28;20048;-71
2022/01/08 02:19:40;;;;;;;25.95;14.65;;;;;;;6.56;79.81;99899.19;3133428;28;20049;-71
2022/01/08 02:21:15;;;;;;;27.35;14.70;;;;;;;6.55;79.85;99900.09;3130958;28;20044;-70
2022/01/08 02:22:46;;;;;;;29.77;14.38;;;;;;;6.59;79.78;99905.13;3133578;28;20445;-71
2022/01/08 02:24:17;;;;;;;26.90;15.05;;;;;;;6.60;79.78;99908.56;3131967;28;20048;-71
2022/01/08 02:25:50;;;;;;;23.92;14.05;;;;;;;6.50;79.81;99884.66;3133721;28;20183;-71
2022/01/08 02:27:21;;;;;;;23.88;14.73;;;;;;;6.60;79.83;99898.22;3133426;28;20057;-71
2022/01/08 02:28:53;;;;;;;27.42;14.88;;;;;;;6.60;80.09;99893.06;3130623;28;20051;-71
2022/01/08 02:30:25;;;;;;;26.42;14.52;;;;;;;6.59;79.89;99899.09;3133836;28;20053;-72
2022/01/08 02:32:03;;;;;;;24.52;14.13;;;;;;;6.52;79.92;99874.31;3132209;28;20102;-71
2022/01/08 02:33:36;;;;;;;27.15;15.15;;;;;;;6.52;80.10;99890.66;3130916;28;20041;-73
2022/01/08 02:35:09;;;;;;;25.40;14.52;;;;;;;6.49;79.85;99890.75;3126955;28;20144;-74
2022/01/08 02:36:42;;;;;;;26.92;15.50;;;;;;;6.57;80.10;99893.97;3131059;28;20049;-74
2022/01/08 02:38:14;;;;;;;28.02;15.25;;;;;;;6.52;80.25;99885.50;3133827;28;20057;-74
2022/01/08 02:39:49;;;;;;;29.70;15.88;;;;;;;6.56;80.30;99887.09;3132322;28;20513;-73
2022/01/08 02:41:20;;;;;;;33.78;16.90;;;;;;;6.55;80.32;99888.00;3131835;28;20044;-74
2022/01/08 02:42:59;;;;;;;29.38;16.95;;;;;;;6.53;80.33;99879.41;3133658;28;20044;-74
2022/01/08 02:44:31;;;;;;;25.67;15.75;;;;;;;6.55;80.52;99889.75;3131156;28;20044;-74
2022/01/08 02:46:03;;;;;;;33.95;16.75;;;;;;;6.49;80.22;99867.47;3132400;28;20045;-72
2022/01/08 02:47:35;;;;;;;30.00;16.58;;;;;;;6.40;80.33;99859.97;3133096;28;20110;-73
2022/01/08 02:49:07;;;;;;;32.78;17.73;;;;;;;6.52;80.31;99874.31;3130137;28;20539;-72
2022/01/08 02:50:39;;;;;;;29.13;16.52;;;;;;;6.55;80.52;99884.56;3133635;28;20053;-72
2022/01/08 02:52:13;;;;;;;35.03;17.98;;;;;;;6.56;80.36;99881.91;3131606;28;20056;-72
2022/01/08 02:53:45;;;;;;;32.63;17.48;;;;;;;6.50;80.42;99879.50;3132666;28;20045;-71
2022/01/08 02:55:20;;;;;;;31.65;17.30;;;;;;;6.55;80.11;99880.22;3127046;28;20138;-71
2022/01/08 02:56:51;;;;;;;29.98;17.33;;;;;;;6.54;80.24;99882.88;3130909;28;20060;-71
2022/01/08 02:58:26;;;;;;;35.13;18.20;;;;;;;6.52;80.13;99882.91;3132872;28;20159;-72
2022/01/08 02:59:57;;;;;;;31.35;16.83;;;;;;;6.54;80.24;99881.13;3132022;28;20071;-72
2022/01/08 03:01:29;;;;;;;33.35;17.30;;;;;;;6.50;80.05;99874.31;3133700;28;20045;-71
2022/01/08 03:03:01;;;;;;;33.88;18.75;;;;;;;6.45;80.30;99862.41;3136398;28;20045;-71
2022/01/08 03:04:33;;;;;;;35.47;18.25;;;;;;;6.43;80.32;99856.44;3132203;28;20049;-71
2022/01/08 03:06:05;;;;;;;32.97;17.13;;;;;;;6.53;80.08;99871.66;3131722;28;20053;-71
2022/01/08 03:07:38;;;;;;;33.35;17.27;;;;;;;6.53;80.33;99873.41;3127515;28;20057;-71
2022/01/08 03:09:10;;;;;;;;;;;;;;;6.32;80.54;99873.09;3126605;28;20060;-71
2022/01/08 03:10:42;;;;;;;33.95;16.60;;;;;;;6.36;80.86;99869.53;3128015;28;20013;-71
2022/01/08 03:12:14;;;;;;;33.90;17.40;;;;;;;6.41;80.69;99868.56;3126087;28;20442;-70
2022/01/08 03:13:46;;;;;;;31.48;17.55;;;;;;;6.43;80.55;99870.22;3127578;28;20502;-70
2022/01/08 03:15:20;;;;;;;34.22;17.60;;;;;;;6.46;80.53;99867.56;3128400;28;20083;-70
2022/01/08 03:16:51;;;;;;;34.42;18.48;;;;;;;6.41;80.54;99872.00;3124931;28;20057;-70
2022/01/08 03:18:23;;;;;;;33.35;17.10;;;;;;;6.41;80.44;99860.81;3127651;28;20080;-70
2022/01/08 03:20:02;;;;;;;32.83;17.73;;;;;;;6.46;80.39;99871.88;3127491;28;20540;-71
2022/01/08 03:21:35;;;;;;;33.60;17.67;;;;;;;6.45;80.37;99873.63;3126171;28;20049;-70
2022/01/08 03:23:14;;;;;;;32.20;17.95;;;;;;;6.44;80.36;99865.88;3128016;28;20052;-70
2022/01/08 03:24:46;;;;;;;37.50;18.65;;;;;;;6.46;80.40;99875.31;3126075;28;20045;-70
2022/01/08 03:26:19;;;;;;;34.65;17.98;;;;;;;6.48;80.46;99873.53;3127049;28;20049;-70
2022/01/08 03:27:53;;;;;;;34.97;17.40;;;;;;;6.46;80.38;99867.56;3127959;28;20118;-70
2022/01/08 03:29:26;;;;;;;35.53;17.70;;;;;;;6.46;80.39;99874.47;3125191;28;20048;-70
2022/01/08 03:30:58;;;;;;;32.33;17.50;;;;;;;6.47;80.52;99870.97;3127594;28;20067;-70
2022/01/08 03:32:29;;;;;;;34.35;17.90;;;;;;;6.43;80.60;99870.22;3126040;28;20438;-70
2022/01/08 03:34:03;;;;;;;34.58;18.63;;;;;;;6.36;80.53;99858.34;3128237;28;20503;-70
2022/01/08 03:35:35;;;;;;;31.15;17.60;;;;;;;6.36;80.51;99853.19;3127834;28;20066;-68
2022/01/08 03:37:07;;;;;;;30.30;16.95;;;;;;;6.43;80.60;99866.78;3124764;28;20524;-69
2022/01/08 03:38:40;;;;;;;35.78;18.73;;;;;;;6.48;80.61;99872.69;3126447;28;20053;-69
2022/01/08 03:40:12;;;;;;;;;;;;;;;6.30;80.65;99872.28;3127321;28;20049;-68
2022/01/08 03:41:45;;;;;;;29.52;16.85;;;;;;;6.36;81.04;99869.53;3124965;28;19924;-68
2022/01/08 03:43:16;;;;;;;36.35;18.42;;;;;;;6.42;80.76;99875.41;3127699;28;20532;-72
2022/01/08 03:44:48;;;;;;;33.53;18.50;;;;;;;6.43;80.92;99867.63;3125777;28;20064;-72
2022/01/08 03:46:21;;;;;;;35.20;18.58;;;;;;;6.12;80.56;99811.56;3127346;28;20102;-72
2022/01/08 03:48:17;;;;;;;37.92;18.77;;;;;;;6.44;80.71;99864.16;3127191;28;20194;-72
2022/01/08 03:49:49;;;;;;;36.83;18.90;;;;;;;6.43;80.86;99866.78;3124923;28;20450;-70
2022/01/08 03:51:20;;;;;;;36.63;18.65;;;;;;;6.43;80.91;99859.88;3127685;28;20057;-70
2022/01/08 03:52:52;;;;;;;33.28;18.40;;;;;;;6.47;80.71;99853.72;3125493;28;20060;-70
2022/01/08 03:54:26;;;;;;;35.53;18.17;;;;;;;6.48;80.73;99863.19;3124345;28;20057;-70
2022/01/08 03:55:58;;;;;;;33.10;17.85;;;;;;;6.46;80.59;99854.63;3123799;28;20136;-70
2022/01/08 03:57:29;;;;;;;41.08;22.73;;;;;;;6.33;80.59;99827.38;3125199;28;20557;-70
2022/01/08 03:59:00;;;;;;;45.45;25.20;;;;;;;6.46;80.70;99844.28;3127372;28;20049;-70
2022/01/08 04:00:33;;;;;;;38.63;20.45;;;;;;;6.47;80.57;99851.13;3126344;28;20513;-70
2022/01/08 04:02:04;;;;;;;41.03;20.37;;;;;;;6.12;80.71;99797.78;3127968;28;20056;-70
2022/01/08 04:03:36;;;;;;;35.65;18.40;;;;;;;6.45;80.71;99849.47;3127752;28;20811;-71
2022/01/08 04:05:09;;;;;;;38.50;19.42;;;;;;;6.47;80.78;99843.38;3124102;28;20061;-70
2022/01/08 04:06:41;;;;;;;33.72;18.88;;;;;;;6.44;80.71;99846.03;3125973;28;20533;-71
2022/01/08 04:08:13;;;;;;;40.35;20.52;;;;;;;6.42;80.68;99842.66;3126861;28;20052;-70
2022/01/08 04:09:46;;;;;;;35.83;19.55;;;;;;;6.49;80.80;99843.34;3125921;28;20823;-70
2022/01/08 04:11:18;;;;;;;35.72;19.23;;;;;;;6.45;80.72;99842.59;3127490;28;20135;-71
2022/01/08 04:12:54;;;;;;;37.90;19.45;;;;;;;6.47;80.68;99851.13;3126365;28;20048;-70
2022/01/08 04:14:33;;;;;;;38.42;20.05;;;;;;;6.24;80.87;99806.94;3126218;28;20071;-70
2022/01/08 04:16:11;;;;;;;38.08;19.95;;;;;;;6.46;80.84;99846.84;3127288;28;20049;-70
2022/01/08 04:17:43;;;;;;;41.00;20.77;;;;;;;6.45;80.80;99847.75;3124964;28;20045;-70
2022/01/08 04:19:16;;;;;;;38.85;19.52;;;;;;;6.45;80.99;99847.75;3126162;28;20049;-70
2022/01/08 04:21:08;;;;;;;40.50;20.83;;;;;;;6.38;80.99;99839.28;3125959;28;20049;-70
2022/01/08 04:22:39;;;;;;;39.05;20.92;;;;;;;6.40;81.02;99849.59;3126369;28;20045;-71
2022/01/08 04:24:11;;;;;;;39.42;20.23;;;;;;;6.45;80.92;99836.53;3127189;28;20210;-72
2022/01/08 04:25:44;;;;;;;45.88;21.20;;;;;;;6.46;81.09;99846.84;3125037;28;20087;-71
2022/01/08 04:27:16;;;;;;;39.03;20.40;;;;;;;6.44;81.21;99840.03;3127418;28;20064;-70
2022/01/08 04:28:49;;;;;;;40.20;20.08;;;;;;;6.44;81.12;99856.38;3125587;28;20518;-71
2022/01/08 04:30:21;;;;;;;41.67;21.95;;;;;;;6.28;81.17;99819.75;3127609;28;20056;-71
2022/01/08 04:31:53;;;;;;;39.75;20.10;;;;;;;6.30;80.94;99824.88;3126857;28;20048;-70
2022/01/08 04:33:25;;;;;;;42.90;21.17;;;;;;;6.44;81.21;99845.19;3126392;28;20088;-71
2022/01/08 04:34:56;;;;;;;36.67;19.65;;;;;;;6.48;81.10;99847.66;3126980;28;20048;-70
2022/01/08 04:36:28;;;;;;;40.13;20.75;;;;;;;6.46;81.24;99840.84;3125169;28;20056;-70
2022/01/08 04:37:59;;;;;;;41.38;22.33;;;;;;;6.47;81.22;99848.53;3126444;28;20482;-71
2022/01/08 04:39:31;;;;;;;40.60;20.42;;;;;;;6.47;81.24;99845.94;3121043;28;20055;-70
2022/01/08 04:41:05;;;;;;;40.85;21.25;;;;;;;6.36;81.16;99829.91;3125175;28;20048;-71
2022/01/08 04:42:37;;;;;;;46.45;20.67;;;;;;;6.50;81.10;99845.03;3126616;28;20535;-71
2022/01/08 04:44:10;;;;;;;41.80;21.98;;;;;;;6.51;80.89;99852.75;3126360;28;20049;-70
2022/01/08 04:45:43;;;;;;;41.45;21.10;;;;;;;6.50;80.96;99856.22;3124116;28;20071;-71
2022/01/08 04:47:15;;;;;;;41.80;21.77;;;;;;;6.19;80.96;99798.47;3123795;28;20053;-71
2022/01/08 04:48:47;;;;;;;41.72;20.75;;;;;;;6.17;80.97;99790.75;3125357;28;20315;-71
2022/01/08 04:50:19;;;;;;;47.17;22.33;;;;;;;6.53;81.08;99855.28;3126122;28;20056;-72
2022/01/08 04:51:51;;;;;;;44.88;21.42;;;;;;;6.54;80.91;99854.41;3127295;28;20049;-72
2022/01/08 04:53:23;;;;;;;40.38;20.73;;;;;;;6.53;80.90;99850.94;3125015;28;20106;-72
2022/01/08 04:54:55;;;;;;;42.05;21.02;;;;;;;6.54;81.06;99857.84;3124718;28;20236;-72
2022/01/08 04:56:28;;;;;;;41.60;21.38;;;;;;;6.39;81.04;99822.06;3122906;28;20048;-72
2022/01/08 04:58:00;;;;;;;38.60;20.20;;;;;;;6.52;80.92;99849.28;3124217;28;20114;-71
2022/01/08 04:59:32;;;;;;;39.97;20.30;;;;;;;6.55;81.04;99850.94;3127261;28;20053;-71
2022/01/08 05:01:04;;;;;;;38.08;18.75;;;;;;;6.53;81.06;99845.78;3125275;28;20057;-72
2022/01/08 05:02:36;;;;;;;38.67;20.15;;;;;;;6.54;80.89;99842.31;3134019;28;20486;-72
2022/01/08 05:04:08;;;;;;;41.30;23.00;;;;;;;6.55;80.84;99841.41;3132084;28;20079;-72
2022/01/08 05:05:40;;;;;;;38.03;21.60;;;;;;;6.54;80.83;99841.47;3131863;28;20513;-72
2022/01/08 05:07:12;;;;;;;36.50;20.08;;;;;;;6.54;80.95;99841.47;3131862;28;20052;-71
2022/01/08 05:08:44;;;;;;;37.35;20.48;;;;;;;6.54;80.91;99836.31;3129897;28;20045;-72
2022/01/08 05:10:16;;;;;;;40.33;20.42;;;;;;;6.51;81.01;99829.47;3132802;28;20061;-72
2022/01/08 05:11:48;;;;;;;37.33;19.10;;;;;;;6.50;80.99;99827.75;3131360;28;20103;-72
2022/01/08 05:13:20;;;;;;;36.00;19.17;;;;;;;6.42;80.75;99821.97;3130134;28;20056;-72
2022/01/08 05:14:53;;;;;;;37.38;19.30;;;;;;;6.49;80.55;99827.81;3131894;28;20484;-72
2022/01/08 05:16:28;;;;;;;38.33;18.92;;;;;;;6.38;80.50;99805.66;3130886;28;20058;-72
2022/01/08 05:17:59;;;;;;;37.10;19.63;;;;;;;6.45;80.64;99818.44;3132053;28;20078;-72
2022/01/08 05:19:44;;;;;;;36.28;19.70;;;;;;;6.47;80.80;99817.50;3130894;28;20044;-72
2022/01/08 05:21:22;;;;;;;33.88;18.52;;;;;;;6.36;80.68;99807.47;3130667;28;20045;-72
2022/01/08 05:22:59;;;;;;;34.20;18.08;;;;;;;6.40;80.84;99815.97;3125471;28;20051;-72
2022/01/08 05:24:31;;;;;;;35.22;18.23;;;;;;;6.46;80.89;99822.72;3124797;28;20056;-72
2022/01/08 05:26:04;;;;;;;38.35;19.05;;;;;;;6.45;80.87;99816.72;3130934;28;20045;-72
2022/01/08 05:27:37;;;;;;;36.95;18.80;;;;;;;6.43;80.77;99812.47;3131761;28;20122;-72
2022/01/08 05:29:09;;;;;;;37.88;18.60;;;;;;;6.41;81.13;99809.91;3128689;28;20414;-72
2022/01/08 05:30:41;;;;;;;37.55;20.23;;;;;;;6.44;80.75;99822.75;3131715;28;20056;-72
2022/01/08 05:32:16;;;;;;;37.80;19.42;;;;;;;6.29;81.04;99802.50;3130530;28;20044;-72
2022/01/08 05:33:48;;;;;;;36.33;18.83;;;;;;;6.45;80.96;99821.88;3129812;28;20048;-72
2022/01/08 05:35:21;;;;;;;34.08;17.95;;;;;;;6.41;80.98;99815.09;3131995;28;20140;-72
2022/01/08 05:36:52;;;;;;;40.63;20.33;;;;;;;6.38;81.02;99810.84;3129992;28;21530;-72
2022/01/08 05:38:24;;;;;;;36.78;18.83;;;;;;;6.43;80.82;99815.06;3131563;28;20106;-73
2022/01/08 05:39:56;;;;;;;37.05;20.00;;;;;;;6.43;80.92;99810.72;3131200;28;20052;-72
2022/01/08 05:41:28;;;;;;;37.08;19.58;;;;;;;6.43;80.69;99808.13;3129540;28;20047;-73
2022/01/08 05:43:01;;;;;;;34.78;18.10;;;;;;;6.47;80.39;99817.50;3131804;28;20490;-73
2022/01/08 05:44:34;;;;;;;34.83;18.98;;;;;;;6.42;80.86;99809.03;3129615;28;20597;-72
2022/01/08 05:46:06;;;;;;;39.63;19.85;;;;;;;6.48;80.58;99818.38;3131499;28;20089;-72
2022/01/08 05:47:38;;;;;;;37.67;18.73;;;;;;;6.48;80.81;99824.38;3131644;28;20049;-72
2022/01/08 05:49:10;;;;;;;37.75;18.85;;;;;;;6.44;80.63;99817.59;3130173;28;20045;-73
2022/01/08 05:50:42;;;;;;;39.03;19.73;;;;;;;6.34;80.48;99800.63;3131379;28;20063;-73
2022/01/08 05:52:13;;;;;;;36.65;19.92;;;;;;;6.47;80.66;99825.25;3131536;28;20049;-72
2022/01/08 05:53:45;;;;;;;42.35;20.98;;;;;;;6.50;80.64;99830.34;3129242;28;20211;-72
2022/01/08 05:55:17;;;;;;;33.70;19.63;;;;;;;6.48;80.81;99831.31;3131573;28;20056;-72
2022/01/08 05:56:51;;;;;;;39.35;20.70;;;;;;;6.23;80.87;99790.56;3128903;28;20098;-73
2022/01/08 05:58:24;;;;;;;38.17;20.58;;;;;;;6.35;80.73;99800.56;3129397;28;20041;-73
2022/01/08 05:59:56;;;;;;;38.13;20.05;;;;;;;6.50;80.94;99830.34;3121534;28;20115;-72
2022/01/08 06:01:28;;;;;;;36.53;19.35;;;;;;;6.53;80.82;99838.03;3129461;28;20049;-72
2022/01/08 06:03:00;;;;;;;42.25;21.48;;;;;;;6.26;80.94;99787.06;3134630;28;20052;-71
2022/01/08 06:04:32;;;;;;;36.72;20.60;;;;;;;6.55;80.83;99836.25;3129312;28;20041;-71
2022/01/08 06:06:04;;;;;;;37.63;19.52;;;;;;;6.56;80.82;99832.75;3131126;28;20053;-72
2022/01/08 06:07:36;;;;;;;41.33;20.02;;;;;;;6.55;80.83;99833.66;3131593;28;20053;-71
2022/01/08 06:09:08;;;;;;;37.33;19.77;;;;;;;6.54;80.68;99834.56;3129440;28;20045;-72
2022/01/08 06:10:40;;;;;;;42.22;21.77;;;;;;;6.56;80.81;99837.94;3131752;28;20049;-71
2022/01/08 06:12:12;;;;;;;39.58;22.05;;;;;;;6.58;80.74;99837.91;3129283;28;20049;-71
2022/01/08 06:13:46;;;;;;;42.00;20.35;;;;;;;6.59;80.90;99840.44;3129925;28;20114;-71
2022/01/08 06:15:17;;;;;;;39.17;19.38;;;;;;;6.58;80.68;99838.75;3130972;28;20045;-71
2022/01/08 06:16:50;;;;;;;37.72;19.95;;;;;;;6.56;80.69;99835.34;3130299;28;20060;-71
2022/01/08 06:18:22;;;;;;;47.45;24.20;;;;;;;6.35;80.89;99797.16;3130899;28;20049;-72
2022/01/08 06:19:54;;;;;;;51.50;25.98;;;;;;;6.33;80.44;99791.16;3130822;28;20582;-72
2022/01/08 06:21:25;;;;;;;45.28;24.17;;;;;;;6.59;80.71;99840.44;3129594;28;20114;-71
2022/01/08 06:22:57;;;;;;;53.28;26.77;;;;;;;6.56;80.62;99837.94;3129674;28;20094;-71
2022/01/08 06:24:29;;;;;;;43.75;24.63;;;;;;;6.53;80.63;99827.66;3126361;28;20111;-71
2022/01/08 06:26:01;;;;;;;45.13;24.10;;;;;;;6.58;80.59;99837.91;3131162;28;20064;-71
2022/01/08 06:27:33;;;;;;;46.85;23.63;;;;;;;6.55;80.57;99831.06;3125033;28;20049;-72
2022/01/08 06:29:07;;;;;;;51.05;23.35;;;;;;;6.62;80.59;99844.69;3128475;28;20106;-72
2022/01/08 06:30:39;;;;;;;48.00;22.73;;;;;;;6.61;80.69;99838.66;3128867;28;20104;-72
2022/01/08 06:32:11;;;;;;;44.72;22.00;;;;;;;6.63;80.83;99840.38;3131600;28;20068;-71
2022/01/08 06:33:43;;;;;;;45.88;21.90;;;;;;;6.58;80.72;99838.75;3132442;28;20063;-69
2022/01/08 06:35:15;;;;;;;41.25;20.23;;;;;;;6.63;81.01;99842.97;3133336;28;20611;-69
2022/01/08 06:36:47;;;;;;;38.70;19.23;;;;;;;6.61;80.91;99835.22;3131134;28;20133;-71
2022/01/08 06:38:19;;;;;;;41.30;20.67;;;;;;;6.47;80.91;99808.88;3132325;28;20087;-71
2022/01/08 06:39:51;;;;;;;41.55;20.40;;;;;;;6.60;80.96;99831.81;3132641;28;20049;-74
2022/01/08 06:41:23;;;;;;;40.50;20.35;;;;;;;6.60;81.02;99829.22;3131210;28;20114;-77
2022/01/08 06:42:54;;;;;;;37.88;21.65;;;;;;;6.64;81.03;99842.91;3133668;28;20095;-77
2022/01/08 06:44:28;;;;;;;38.55;19.98;;;;;;;6.46;81.07;99802.88;3132158;28;20106;-79
2022/01/08 06:45:58;;;;;;;43.40;23.83;;;;;;;6.64;81.17;99837.72;3133877;28;20106;-73
2022/01/08 06:47:30;;;;;;;41.28;22.55;;;;;;;6.63;81.02;99837.78;3126940;28;20136;-75
2022/01/08 06:49:02;;;;;;;39.15;22.55;;;;;;;6.63;81.15;99830.88;3128208;28;20407;-73
2022/01/08 06:50:34;;;;;;;41.10;21.60;;;;;;;6.64;81.20;99832.56;3133775;28;20130;-73
2022/01/08 06:52:07;;;;;;;55.63;30.23;;;;;;;6.67;81.15;99834.22;3132723;28;20393;-73
2022/01/08 06:53:39;;;;;;;59.38;31.27;;;;;;;6.67;81.27;99831.63;3131574;28;20048;-73
2022/01/08 06:55:11;;;;;;;55.40;30.38;;;;;;;6.60;81.00;99818.03;3131293;28;20402;-73
2022/01/08 06:56:43;;;;;;;52.35;28.17;;;;;;;6.72;81.20;99832.34;3130947;28;20484;-73
2022/01/08 06:58:15;;;;;;;48.83;26.90;;;;;;;6.55;81.06;99802.59;3132879;28;20135;-73
2022/01/08 06:59:48;;;;;;;44.72;23.38;;;;;;;6.69;80.80;99817.75;3132802;28;20045;-74
2022/01/08 07:01:21;;;;;;;48.22;26.85;;;;;;;6.77;80.97;99835.63;3131553;28;20122;-72
2022/01/08 07:03:11;;;;;;;;;;;;;;;;;;;;;
2022/01/08 07:04:43;;;;;;;41.97;23.15;;;;;;;6.79;80.96;99828.69;3118250;28;20503;-73
2022/01/08 07:06:15;;;;;;;44.38;23.20;;;;;;;6.79;80.77;99826.94;3129682;28;20771;-73
2022/01/08 07:07:47;;;;;;;82.60;42.28;;;;;;;6.75;80.73;99825.34;3132738;28;20068;-73
2022/01/08 07:09:19;;;;;;;91.60;45.78;;;;;;;6.84;80.76;99829.41;3130072;28;20053;-73
2022/01/08 07:10:51;;;;;;;55.67;26.77;;;;;;;6.86;80.60;99832.75;3132867;28;20062;-71
2022/01/08 07:12:23;;;;;;;68.70;36.00;;;;;;;6.87;80.65;99823.28;3132697;28;20083;-71
2022/01/08 07:13:55;;;;;;;46.85;24.70;;;;;;;6.87;80.65;99828.47;3130542;28;20059;-68
2022/01/08 07:15:29;;;;;;;46.47;23.80;;;;;;;6.87;80.42;99818.94;3131348;28;20523;-68
2022/01/08 07:17:00;;;;;;;43.67;22.15;;;;;;;6.91;80.59;99827.47;3130711;28;20060;-67
2022/01/08 07:18:32;;;;;;;46.60;21.88;;;;;;;6.92;80.59;99824.84;3131782;28;20044;-68
2022/01/08 07:20:05;;;;;;;42.60;20.80;;;;;;;6.93;80.54;99823.94;3132455;28;20067;-68
2022/01/08 07:21:37;;;;;;;41.72;20.08;;;;;;;6.92;80.56;99819.66;3130703;28;20053;-68
2022/01/08 07:23:08;;;;;;;42.95;21.77;;;;;;;6.61;80.46;99767.94;3132100;28;20060;-68
2022/01/08 07:24:40;;;;;;;45.58;23.23;;;;;;;6.96;80.70;99812.66;3131132;28;20041;-68